createdAt,value
2016-07-06T00:06:37.327Z,99.99
2016-07-06T00:07:37.256Z,99.99
2016-07-06T00:08:37.393Z,99.99
2016-07-06T00:09:37.238Z,99.99
2016-07-06T00:10:37.261Z,99.99
2016-07-06T00:11:37.221Z,99.99
2016-07-06T00:12:37.257Z,99.99
2016-07-06T00:13:37.278Z,99.99
2016-07-06T00:14:37.239Z,99.99
2016-07-06T00:15:37.221Z,99.99
2016-07-06T00:16:37.243Z,99.99
2016-07-06T00:17:37.207Z,99.99
2016-07-06T00:18:38.144Z,99.99
2016-07-06T00:19:37.196Z,99.99
2016-07-06T00:20:37.243Z,99.99
2016-07-06T00:21:37.199Z,99.99
2016-07-06T00:22:37.269Z,99.99
2016-07-06T00:23:37.229Z,99.99
2016-07-06T00:24:37.217Z,99.99
2016-07-06T00:25:37.311Z,99.99
2016-07-06T00:26:37.360Z,99.99
2016-07-06T00:27:37.406Z,99.99
2016-07-06T00:28:37.499Z,99.99
2016-07-06T00:29:37.260Z,99.99
2016-07-06T00:30:37.752Z,99.99
2016-07-06T00:31:37.235Z,99.99
2016-07-06T00:32:37.266Z,99.99
2016-07-06T00:42:37.778Z,99.99
2016-07-06T00:42:54.439Z,99.99
2016-07-06T00:43:54.409Z,99.99
2016-07-06T00:44:54.419Z,99.99
2016-07-06T00:45:54.425Z,99.99
2016-07-06T00:46:54.636Z,99.99
2016-07-06T00:47:54.429Z,99.99
2016-07-06T00:48:54.433Z,99.99
2016-07-06T00:49:54.479Z,99.99
2016-07-06T00:50:54.445Z,99.99
2016-07-06T00:51:54.416Z,99.99
2016-07-06T00:52:54.453Z,99.99
2016-07-06T00:53:54.396Z,99.99
2016-07-06T00:54:54.402Z,99.99
2016-07-06T00:55:54.448Z,99.99
2016-07-06T00:56:54.422Z,99.99
2016-07-06T00:57:54.445Z,99.99
2016-07-06T00:58:54.446Z,99.99
2016-07-06T00:59:54.382Z,99.99
2016-07-06T01:00:54.431Z,99.99
2016-07-06T01:01:54.438Z,99.99
2016-07-06T01:02:54.658Z,99.99
2016-07-06T01:03:54.466Z,99.99
2016-07-06T01:04:54.409Z,99.99
2016-07-06T01:05:54.569Z,99.99
2016-07-06T01:06:54.412Z,99.99
2016-07-06T01:07:54.570Z,99.99
2016-07-06T01:08:54.561Z,99.99
2016-07-06T01:09:55.973Z,99.99
2016-07-06T01:10:54.698Z,99.99
2016-07-06T01:11:54.411Z,99.99
2016-07-06T01:12:54.427Z,99.99
2016-07-06T01:13:54.394Z,99.99
2016-07-06T01:14:54.453Z,99.99
2016-07-06T01:15:54.550Z,99.99
2016-07-06T01:16:57.800Z,99.99
2016-07-06T01:17:54.436Z,99.99
2016-07-06T01:18:54.413Z,99.99
2016-07-06T01:19:54.435Z,99.99
2016-07-06T01:20:54.444Z,99.99
2016-07-06T01:21:54.399Z,99.99
2016-07-06T01:22:54.437Z,99.99
2016-07-06T01:23:54.420Z,99.99
2016-07-06T01:24:54.470Z,99.99
2016-07-06T01:25:54.429Z,99.99
2016-07-06T01:26:54.414Z,99.99
2016-07-06T01:27:54.460Z,99.99
2016-07-06T01:28:54.447Z,99.99
2016-07-06T01:29:54.458Z,99.99
2016-07-06T01:30:54.432Z,99.99
2016-07-06T01:31:54.426Z,99.99
2016-07-06T01:32:54.445Z,99.99
2016-07-06T01:33:54.419Z,99.99
2016-07-06T01:34:54.417Z,99.99
2016-07-06T01:35:54.470Z,99.99
2016-07-06T01:36:54.447Z,99.99
2016-07-06T01:37:54.519Z,99.99
2016-07-06T01:38:54.427Z,99.99
2016-07-06T01:39:54.443Z,99.99
2016-07-06T01:40:54.464Z,99.99
2016-07-06T01:41:54.436Z,99.99
2016-07-06T01:54:11.638Z,99.99
2016-07-06T01:55:11.613Z,99.99
2016-07-06T01:56:11.543Z,99.99
2016-07-06T01:57:11.587Z,99.99
2016-07-06T01:58:11.556Z,99.99
2016-07-06T01:59:11.606Z,99.99
2016-07-06T02:00:11.580Z,99.99
2016-07-06T02:01:11.617Z,99.99
2016-07-06T02:02:11.576Z,99.99
2016-07-06T02:03:11.586Z,99.99
2016-07-06T02:04:11.587Z,99.99
2016-07-06T02:05:11.562Z,99.99
2016-07-06T02:06:11.606Z,99.99
2016-07-06T02:07:11.583Z,99.99
2016-07-06T02:08:11.599Z,99.99
2016-07-06T02:09:11.584Z,99.99
2016-07-06T02:10:11.579Z,99.99
2016-07-06T02:11:11.581Z,99.99
2016-07-06T02:12:11.608Z,99.99
2016-07-06T02:13:11.582Z,99.99
2016-07-06T02:14:11.565Z,99.99
2016-07-06T02:15:11.569Z,99.99
2016-07-06T02:16:11.605Z,99.99
2016-07-06T02:17:11.580Z,99.99
2016-07-06T02:18:11.630Z,99.99
2016-07-06T02:19:11.619Z,99.99
2016-07-06T02:20:11.607Z,99.99
2016-07-06T02:21:11.587Z,99.99
2016-07-06T02:22:11.588Z,99.99
2016-07-06T02:23:11.576Z,99.99
2016-07-06T02:24:11.599Z,99.99
2016-07-06T02:25:11.579Z,99.99
2016-07-06T02:26:11.635Z,99.99
2016-07-06T02:27:11.576Z,99.99
2016-07-06T02:28:12.896Z,99.99
2016-07-06T02:29:11.587Z,99.99
2016-07-06T02:30:11.594Z,99.99
2016-07-06T02:31:11.608Z,99.99
2016-07-06T02:32:11.640Z,99.99
2016-07-06T02:33:11.599Z,99.99
2016-07-06T02:34:11.624Z,99.99
2016-07-06T02:35:11.581Z,99.99
2016-07-06T02:36:11.622Z,99.99
2016-07-06T02:37:11.604Z,99.99
2016-07-06T02:38:11.652Z,99.99
2016-07-06T02:39:11.599Z,99.99
2016-07-06T02:40:11.593Z,99.99
2016-07-06T02:41:11.605Z,99.99
2016-07-06T02:42:11.708Z,99.99
2016-07-06T02:43:11.637Z,99.99
2016-07-06T02:44:11.635Z,99.99
2016-07-06T02:45:12.599Z,99.99
2016-07-06T02:46:11.577Z,99.99
2016-07-06T02:47:11.602Z,99.99
2016-07-06T02:48:11.599Z,99.99
2016-07-06T02:49:11.587Z,99.99
2016-07-06T02:50:14.352Z,99.99
2016-07-06T02:51:11.786Z,99.99
2016-07-06T02:52:11.588Z,99.99
2016-07-06T02:53:11.563Z,99.99
2016-07-06T02:54:11.593Z,99.99
2016-07-06T02:55:11.621Z,99.99
2016-07-06T02:56:11.592Z,99.99
2016-07-06T02:57:11.609Z,99.99
2016-07-06T02:58:11.598Z,99.99
2016-07-06T02:59:11.605Z,99.99
2016-07-06T03:00:11.582Z,99.99
2016-07-06T03:01:11.868Z,99.99
2016-07-06T03:02:11.593Z,99.99
2016-07-06T03:03:11.606Z,99.99
2016-07-06T03:04:11.592Z,99.99
2016-07-06T03:05:11.620Z,99.99
2016-07-06T03:06:11.611Z,99.99
2016-07-06T03:07:11.603Z,99.99
2016-07-06T03:08:11.608Z,99.99
2016-07-06T03:09:11.621Z,99.99
2016-07-06T03:10:12.021Z,99.99
2016-07-06T03:11:11.633Z,99.99
2016-07-06T03:12:11.642Z,99.99
2016-07-06T03:13:12.445Z,99.99
2016-07-06T03:14:11.635Z,99.99
2016-07-06T03:15:11.626Z,99.99
2016-07-06T03:16:11.738Z,99.99
2016-07-06T03:17:11.627Z,99.99
2016-07-06T03:18:11.586Z,99.99
2016-07-06T03:19:11.614Z,99.99
2016-07-06T03:20:11.598Z,99.99
2016-07-06T03:21:12.474Z,99.99
2016-07-06T03:22:11.634Z,99.99
2016-07-06T03:23:11.637Z,99.99
2016-07-06T03:24:11.613Z,99.99
2016-07-06T03:25:11.597Z,99.99
2016-07-06T03:26:11.631Z,99.99
2016-07-06T03:27:11.589Z,99.99
2016-07-06T03:28:11.608Z,99.99
2016-07-06T03:29:11.611Z,99.99
2016-07-06T03:30:11.628Z,99.99
2016-07-06T03:31:11.606Z,99.99
2016-07-06T03:32:11.717Z,99.99
2016-07-06T03:33:11.606Z,99.99
2016-07-06T03:34:11.660Z,99.99
2016-07-06T03:35:11.637Z,99.99
2016-07-06T03:36:11.607Z,99.99
2016-07-06T03:37:12.613Z,99.99
2016-07-06T03:38:11.636Z,99.99
2016-07-06T03:39:11.610Z,99.99
2016-07-06T03:40:11.621Z,99.99
2016-07-06T03:41:11.628Z,99.99
2016-07-06T03:42:11.601Z,99.99
2016-07-06T03:43:11.624Z,99.99
2016-07-06T03:44:11.663Z,99.99
2016-07-06T03:45:11.623Z,99.99
2016-07-06T03:46:11.629Z,99.99
2016-07-06T03:47:11.633Z,99.99
2016-07-06T03:48:11.640Z,99.99
2016-07-06T03:49:11.661Z,99.99
2016-07-06T03:50:11.607Z,99.99
2016-07-06T03:51:11.897Z,99.99
2016-07-06T03:52:11.612Z,99.99
2016-07-06T03:53:11.643Z,99.99
2016-07-06T03:54:25.224Z,99.99
2016-07-06T03:55:12.626Z,99.99
2016-07-06T03:56:11.652Z,99.99
2016-07-06T03:57:11.617Z,99.99
2016-07-06T03:58:11.624Z,99.99
2016-07-06T03:59:11.621Z,99.99
2016-07-06T04:00:11.643Z,99.99
2016-07-06T04:01:11.657Z,99.99
2016-07-06T04:02:11.646Z,99.99
2016-07-06T04:03:11.618Z,99.99
2016-07-06T04:04:11.621Z,99.99
2016-07-06T04:05:11.664Z,99.99
2016-07-06T04:06:12.466Z,99.99
2016-07-06T04:07:11.626Z,99.99
2016-07-06T04:08:11.628Z,99.99
2016-07-06T04:09:11.634Z,99.99
2016-07-06T04:10:11.646Z,99.99
2016-07-06T04:11:11.629Z,99.99
2016-07-06T04:12:11.644Z,99.99
2016-07-06T04:13:11.650Z,99.99
2016-07-06T04:14:11.631Z,99.99
2016-07-06T04:15:11.654Z,99.99
2016-07-06T04:16:11.647Z,99.99
2016-07-06T04:17:11.605Z,99.99
2016-07-06T04:18:11.611Z,99.99
2016-07-06T04:19:11.614Z,99.99
2016-07-06T04:20:11.643Z,99.99
2016-07-06T04:21:11.630Z,99.99
2016-07-06T04:22:11.658Z,99.99
2016-07-06T04:23:11.696Z,99.99
2016-07-06T04:24:11.641Z,99.99
2016-07-06T04:25:11.665Z,99.99
2016-07-06T04:26:11.649Z,99.99
2016-07-06T04:27:11.608Z,99.99
2016-07-06T04:28:11.640Z,99.99
2016-07-06T04:29:11.661Z,99.99
2016-07-06T04:30:11.645Z,99.99
2016-07-06T04:31:11.656Z,99.99
2016-07-06T04:32:11.692Z,99.99
2016-07-06T04:33:11.657Z,99.99
2016-07-06T04:34:11.697Z,99.99
2016-07-06T04:35:11.639Z,99.99
2016-07-06T04:36:11.673Z,99.99
2016-07-06T04:37:11.690Z,99.99
2016-07-06T04:38:11.672Z,99.99
2016-07-06T04:39:11.657Z,99.99
2016-07-06T04:40:11.716Z,99.29
2016-07-06T04:41:11.716Z,96.84
2016-07-06T04:42:11.691Z,94.5
2016-07-06T04:43:11.671Z,93.49
2016-07-06T04:44:11.672Z,91.91
2016-07-06T04:45:11.658Z,90.47
2016-07-06T04:46:11.650Z,89.22
2016-07-06T04:47:11.655Z,88.21
2016-07-06T04:48:11.658Z,88.11
2016-07-06T04:49:12.006Z,89.17
2016-07-06T04:50:11.667Z,91.24
2016-07-06T04:51:11.620Z,93.21
2016-07-06T04:52:11.681Z,95.07
2016-07-06T04:53:11.707Z,97.04
2016-07-06T04:54:11.798Z,98.05
2016-07-06T04:55:11.669Z,98.52
2016-07-06T04:56:11.645Z,96.51
2016-07-06T04:57:11.664Z,95.6
2016-07-06T04:58:11.674Z,93.98
2016-07-06T04:59:11.784Z,92.01
2016-07-06T05:00:11.787Z,90.81
2016-07-06T05:01:11.669Z,89.12
2016-07-06T05:02:11.715Z,88.35
2016-07-06T05:03:12.528Z,87.05
2016-07-06T05:04:11.683Z,86.05
2016-07-06T05:05:11.805Z,85.18
2016-07-06T05:06:11.661Z,84.55
2016-07-06T05:07:12.670Z,85.71
2016-07-06T05:08:11.771Z,86.43
2016-07-06T05:09:11.766Z,87.25
2016-07-06T05:10:11.652Z,89.07
2016-07-06T05:11:11.627Z,89.51
2016-07-06T05:12:11.676Z,88.65
2016-07-06T05:13:34.984Z,88.21
2016-07-06T05:14:13.929Z,87.63
2016-07-06T05:15:11.655Z,87.25
2016-07-06T05:16:11.653Z,87.73
2016-07-06T05:17:11.819Z,86.62
2016-07-06T05:18:11.704Z,86.77
2016-07-06T05:19:11.657Z,87.35
2016-07-06T05:20:11.649Z,86.96
2016-07-06T05:21:12.016Z,87.73
2016-07-06T05:22:11.670Z,87.68
2016-07-06T05:23:11.634Z,88.21
2016-07-06T05:24:11.708Z,87.15
2016-07-06T05:25:11.764Z,89.12
2016-07-06T05:26:11.733Z,90.18
2016-07-06T05:27:11.786Z,89.85
2016-07-06T05:28:11.673Z,89.56
2016-07-06T05:29:12.012Z,88.65
2016-07-06T05:30:11.697Z,89.7
2016-07-06T05:31:11.754Z,91
2016-07-06T05:32:11.751Z,92.68
2016-07-06T05:33:12.515Z,92.77
2016-07-06T05:34:11.754Z,90.47
2016-07-06T05:46:28.568Z,87.01
2016-07-06T05:47:28.697Z,86
2016-07-06T05:48:28.580Z,85.28
2016-07-06T05:49:28.590Z,84.03
2016-07-06T05:50:28.595Z,84.31
2016-07-06T05:51:28.661Z,83.36
2016-07-06T05:52:30.776Z,82.53
2016-07-06T05:53:28.634Z,81.23
2016-07-06T05:54:28.592Z,80.84
2016-07-06T05:55:28.600Z,79.92
2016-07-06T05:56:29.593Z,78.71
2016-07-06T05:57:28.599Z,79.15
2016-07-06T05:58:28.617Z,80.11
2016-07-06T05:59:28.623Z,81.71
2016-07-06T06:00:31.666Z,82.82
2016-07-06T06:01:28.586Z,84.12
2016-07-06T06:02:28.616Z,85.52
2016-07-06T06:03:28.711Z,87.73
2016-07-06T06:04:32.800Z,87.98
2016-07-06T06:05:28.830Z,88.65
2016-07-06T06:06:28.599Z,89.65
2016-07-06T06:07:28.659Z,90.33
2016-07-06T06:08:40.726Z,90.95
2016-07-06T06:09:28.714Z,91.53
2016-07-06T06:10:28.621Z,92.01
2016-07-06T06:11:28.672Z,91.91
2016-07-06T06:12:28.612Z,92.35
2016-07-06T06:13:28.604Z,92.82
2016-07-06T06:14:28.574Z,92.73
2016-07-06T06:15:28.653Z,92.58
2016-07-06T06:16:33.031Z,92.3
2016-07-06T06:17:28.579Z,92.15
2016-07-06T06:18:28.635Z,93.3
2016-07-06T06:19:28.641Z,93.3
2016-07-06T06:20:28.624Z,93.4
2016-07-06T06:21:28.923Z,92.73
2016-07-06T06:22:28.627Z,93.02
2016-07-06T06:23:28.623Z,92.35
2016-07-06T06:24:28.610Z,91.96
2016-07-06T06:25:33.069Z,92.06
2016-07-06T06:26:29.127Z,90.86
2016-07-06T06:27:28.879Z,90.09
2016-07-06T06:28:28.607Z,90.67
2016-07-06T06:29:28.630Z,91.05
2016-07-06T06:30:34.428Z,91.63
2016-07-06T06:31:32.026Z,91.24
2016-07-06T06:32:28.666Z,90.95
2016-07-06T06:33:30.395Z,89.71
2016-07-06T06:34:28.630Z,90.09
2016-07-06T06:35:28.905Z,89.9
2016-07-06T06:36:28.624Z,89.86
2016-07-06T06:37:28.632Z,89.71
2016-07-06T06:38:28.660Z,89.8
2016-07-06T06:39:28.656Z,89.9
2016-07-06T06:40:28.676Z,89.13
2016-07-06T06:41:29.669Z,89.23
2016-07-06T06:42:28.708Z,89.47
2016-07-06T06:43:29.772Z,89.42
2016-07-06T06:44:28.726Z,89.23
2016-07-06T06:45:28.625Z,89.51
2016-07-06T06:46:28.623Z,88.46
2016-07-06T06:47:28.635Z,88.46
2016-07-06T06:48:28.614Z,87.98
2016-07-06T06:49:28.650Z,87.6
2016-07-06T06:50:28.842Z,87.21
2016-07-06T06:51:28.657Z,86.93
2016-07-06T06:52:29.078Z,86.74
2016-07-06T06:53:28.671Z,86.83
2016-07-06T06:54:28.680Z,86.97
2016-07-06T07:06:46.138Z,88.22
2016-07-06T07:07:46.086Z,88.31
2016-07-06T07:08:47.199Z,88.79
2016-07-06T07:09:46.075Z,88.08
2016-07-06T07:10:46.072Z,87.35
2016-07-06T07:11:46.287Z,87.07
2016-07-06T07:12:46.236Z,86.58
2016-07-06T07:13:46.149Z,86.01
2016-07-06T07:14:47.568Z,85.05
2016-07-06T07:15:46.108Z,85.34
2016-07-06T07:16:46.075Z,85.34
2016-07-06T07:17:46.531Z,85
2016-07-06T07:18:48.687Z,84.42
2016-07-06T07:19:46.086Z,84.71
2016-07-06T07:20:50.870Z,83.75
2016-07-06T07:21:46.253Z,84.23
2016-07-06T07:22:46.113Z,83.56
2016-07-06T07:23:46.108Z,83.65
2016-07-06T07:24:46.090Z,83.56
2016-07-06T07:25:46.240Z,83.85
2016-07-06T07:26:46.112Z,84.23
2016-07-06T07:27:46.354Z,83.65
2016-07-06T07:28:46.107Z,84.48
2016-07-06T07:29:47.210Z,83.61
2016-07-06T07:30:46.255Z,83.52
2016-07-06T07:31:46.077Z,84.09
2016-07-06T07:32:46.123Z,83.91
2016-07-06T07:33:46.123Z,83.81
2016-07-06T07:34:46.102Z,84.28
2016-07-06T07:35:46.085Z,83.91
2016-07-06T07:36:49.648Z,82.37
2016-07-06T07:37:46.981Z,82.75
2016-07-06T07:38:50.767Z,82.56
2016-07-06T07:39:46.120Z,82.03
2016-07-06T07:40:46.142Z,81.93
2016-07-06T07:41:46.087Z,80.97
2016-07-06T07:42:46.109Z,81.1
2016-07-06T07:43:46.056Z,80.34
2016-07-06T07:44:46.170Z,80.15
2016-07-06T07:45:46.126Z,80.15
2016-07-06T07:46:47.603Z,79.03
2016-07-06T07:47:48.581Z,77.98
2016-07-06T07:48:46.679Z,76.64
2016-07-06T07:49:46.256Z,75.29
2016-07-06T07:50:46.261Z,73.21
2016-07-06T07:51:50.612Z,70.21
2016-07-06T07:52:46.135Z,68.64
2016-07-06T07:53:47.862Z,65.47
2016-07-06T07:54:46.125Z,63.98
2016-07-06T07:55:46.113Z,63.12
2016-07-06T07:56:46.280Z,60.93
2016-07-06T07:57:46.098Z,59.92
2016-07-06T07:59:35.918Z,61.57
2016-07-06T07:59:55.635Z,60.93
2016-07-06T08:00:52.873Z,61.57
2016-07-06T08:01:55.703Z,60.35
2016-07-06T08:02:54.446Z,59.28
2016-07-06T08:03:52.856Z,58.61
2016-07-06T08:04:52.878Z,56.83
2016-07-06T08:06:08.306Z,56.21
2016-07-06T08:06:55.232Z,58.12
2016-07-06T08:07:56.081Z,58.84
2016-07-06T08:08:53.022Z,57.45
2016-07-06T08:09:54.164Z,55.83
2016-07-06T08:10:52.898Z,56.63
2016-07-06T08:11:52.900Z,58.73
2016-07-06T08:12:55.706Z,60.41
2016-07-06T08:13:53.188Z,59.16
2016-07-06T08:14:53.038Z,58.03
2016-07-06T08:15:53.930Z,56.03
2016-07-06T08:16:52.969Z,54.57
2016-07-06T08:17:52.945Z,51.9
2016-07-06T08:18:52.921Z,50.57
2016-07-06T08:19:53.143Z,50.5
2016-07-06T08:20:54.010Z,50.38
2016-07-06T08:21:57.358Z,50.5
2016-07-06T08:22:53.098Z,49.24
2016-07-06T08:23:52.936Z,49.07
2016-07-06T08:24:52.884Z,49.73
2016-07-06T08:25:56.624Z,49.82
2016-07-06T08:26:52.988Z,49.15
2016-07-06T08:27:52.980Z,50.29
2016-07-06T08:29:04.163Z,50.48
2016-07-06T08:29:52.920Z,49.61
2016-07-06T08:30:52.910Z,49.44
2016-07-06T08:31:52.935Z,50.6
2016-07-06T08:32:52.848Z,52.42
2016-07-06T08:33:52.887Z,56.18
2016-07-06T08:34:52.924Z,60.06
2016-07-06T08:35:52.890Z,58.68
2016-07-06T08:36:52.886Z,56.39
2016-07-06T08:37:53.135Z,55.41
2016-07-06T08:38:52.908Z,56.21
2016-07-06T08:39:53.103Z,57.12
2016-07-06T08:40:52.892Z,58.73
2016-07-06T08:41:52.922Z,59
2016-07-06T08:42:52.941Z,58.87
2016-07-06T08:43:52.943Z,57.64
2016-07-06T08:44:52.993Z,56.03
2016-07-06T08:45:54.296Z,54.35
2016-07-06T08:46:52.995Z,52.66
2016-07-06T08:47:53.002Z,52.22
2016-07-06T08:48:53.196Z,51.9
2016-07-06T08:49:52.897Z,51.32
2016-07-06T08:50:52.911Z,51.04
2016-07-06T08:51:52.878Z,49.63
2016-07-06T08:52:52.909Z,48.49
2016-07-06T08:53:52.934Z,48.15
2016-07-06T08:54:52.937Z,47.25
2016-07-06T08:55:52.910Z,48.39
2016-07-06T08:56:53.247Z,47.91
2016-07-06T08:57:53.086Z,50.7
2016-07-06T08:58:52.932Z,53.11
2016-07-06T08:59:53.500Z,54.9
2016-07-06T09:00:52.947Z,56.22
2016-07-06T09:01:52.910Z,58.51
2016-07-06T09:02:53.977Z,60.28
2016-07-06T09:03:53.153Z,60.42
2016-07-06T09:04:54.150Z,57.94
2016-07-06T09:05:52.925Z,55.23
2016-07-06T09:06:52.915Z,53.45
2016-07-06T09:07:53.302Z,51.95
2016-07-06T09:08:54.768Z,51.01
2016-07-06T09:09:53.053Z,52.85
2016-07-06T09:10:57.773Z,56.57
2016-07-06T09:11:52.993Z,58.03
2016-07-06T09:12:52.999Z,59.16
2016-07-06T09:13:52.992Z,58.87
2016-07-06T09:14:52.947Z,60.71
2016-07-06T09:15:52.947Z,61.8
2016-07-06T09:17:52.949Z,56.58
2016-07-06T09:18:53.306Z,55.45
2016-07-06T09:19:52.947Z,52.7
2016-07-06T09:20:54.449Z,51.68
2016-07-06T09:21:52.924Z,49.51
2016-07-06T09:22:52.933Z,48.47
2016-07-06T09:23:56.936Z,48.3
2016-07-06T09:24:56.884Z,48.18
2016-07-06T09:25:52.946Z,49.05
2016-07-06T09:26:52.952Z,50.38
2016-07-06T09:27:53.014Z,50.65
2016-07-06T09:28:52.953Z,50.35
2016-07-06T09:29:52.914Z,50.35
2016-07-06T09:31:01.862Z,49.19
2016-07-06T09:31:53.333Z,48.9
2016-07-06T09:32:52.940Z,47.09
2016-07-06T09:33:54.194Z,48.39
2016-07-06T09:34:52.966Z,48.18
2016-07-06T09:35:52.934Z,48.27
2016-07-06T09:36:52.960Z,47.13
2016-07-06T09:38:09.793Z,47.16
2016-07-06T09:38:52.951Z,46.79
2016-07-06T09:39:58.719Z,46.79
2016-07-06T09:40:52.946Z,46.72
2016-07-06T09:41:52.930Z,47.3
2016-07-06T09:42:53.094Z,51.04
2016-07-06T09:43:52.959Z,53.33
2016-07-06T09:44:53.052Z,52.82
2016-07-06T09:45:53.307Z,52.05
2016-07-06T09:46:53.155Z,50.89
2016-07-06T09:59:46.156Z,61.95
2016-07-06T10:00:13.963Z,63.25
2016-07-06T10:01:10.687Z,64.59
2016-07-06T10:02:15.319Z,64.69
2016-07-06T10:03:10.906Z,62.29
2016-07-06T10:04:11.852Z,58.78
2016-07-06T10:05:11.191Z,56.94
2016-07-06T10:06:10.684Z,53.71
2016-07-06T10:07:10.589Z,52.24
2016-07-06T10:08:17.262Z,52.73
2016-07-06T10:09:10.610Z,53.5
2016-07-06T10:10:10.679Z,55.93
2016-07-06T10:11:11.425Z,57.9
2016-07-06T10:12:10.608Z,59
2016-07-06T10:13:17.337Z,60.23
2016-07-06T10:14:10.687Z,60.9
2016-07-06T10:15:11.454Z,62.63
2016-07-06T10:16:13.932Z,62.12
2016-07-06T10:17:11.561Z,62.57
2016-07-06T10:18:16.183Z,63.41
2016-07-06T10:19:10.882Z,63.6
2016-07-06T10:20:10.626Z,64.18
2016-07-06T10:21:12.671Z,64.73
2016-07-06T10:22:10.632Z,65.01
2016-07-06T10:23:10.604Z,65.59
2016-07-06T10:24:10.643Z,67.68
2016-07-06T10:25:10.617Z,66.91
2016-07-06T10:26:10.645Z,67.38
2016-07-06T10:27:10.628Z,67.58
2016-07-06T10:28:13.400Z,67.48
2016-07-06T10:29:13.214Z,68.83
2016-07-06T10:30:10.624Z,67.68
2016-07-06T10:31:10.609Z,67.1
2016-07-06T10:32:10.616Z,62.74
2016-07-06T10:33:11.754Z,59.17
2016-07-06T10:34:10.701Z,60.06
2016-07-06T10:35:10.606Z,61.29
2016-07-06T10:36:10.611Z,60.49
2016-07-06T10:37:10.627Z,57.94
2016-07-06T10:38:10.629Z,58
2016-07-06T10:39:16.979Z,59.32
2016-07-06T10:40:13.684Z,57.46
2016-07-06T10:41:21.000Z,54.6
2016-07-06T10:42:10.813Z,52.65
2016-07-06T10:43:10.636Z,50.76
2016-07-06T10:44:23.753Z,48.86
2016-07-06T10:45:10.835Z,47.84
2016-07-06T10:46:10.629Z,47.26
2016-07-06T10:47:10.776Z,46.62
2016-07-06T10:48:18.647Z,44.88
2016-07-06T10:49:11.230Z,44.34
2016-07-06T10:50:11.936Z,44.05
2016-07-06T10:51:12.039Z,44.56
2016-07-06T10:52:10.644Z,46.84
2016-07-06T10:53:10.722Z,48.93
2016-07-06T10:54:10.643Z,49.65
2016-07-06T10:55:11.264Z,50.4
2016-07-06T10:56:12.316Z,52.77
2016-07-06T10:57:11.283Z,53.39
2016-07-06T11:00:18.288Z,55.88
2016-07-06T11:00:45.910Z,57.72
2016-07-06T11:01:40.499Z,57.62
2016-07-06T11:02:40.434Z,57.72
2016-07-06T11:03:41.171Z,58.56
2016-07-06T11:04:40.208Z,59.72
2016-07-06T11:05:40.215Z,60.3
2016-07-06T11:06:44.404Z,60.94
2016-07-06T11:07:40.267Z,60.17
2016-07-06T11:08:40.260Z,59.78
2016-07-06T11:09:40.249Z,61.22
2016-07-06T11:10:40.223Z,60.46
2016-07-06T11:11:40.348Z,56.82
2016-07-06T11:12:40.206Z,53.08
2016-07-06T11:13:40.218Z,51.06
2016-07-06T11:14:40.229Z,50.6
2016-07-06T11:15:40.221Z,50.98
2016-07-06T11:16:42.485Z,52.39
2016-07-06T11:17:40.204Z,53.88
2016-07-06T11:18:40.226Z,55.18
2016-07-06T11:19:40.239Z,56.91
2016-07-06T11:20:40.229Z,56.98
2016-07-06T11:21:40.263Z,58.69
2016-07-06T11:22:40.223Z,60.61
2016-07-06T11:23:40.379Z,61.07
2016-07-06T11:24:40.243Z,60.27
2016-07-06T11:25:40.250Z,61.04
2016-07-06T11:26:43.345Z,61.52
2016-07-06T11:27:40.217Z,60.72
2016-07-06T11:28:40.321Z,60.91
2016-07-06T11:29:40.215Z,60.62
2016-07-06T11:30:40.222Z,58.7
2016-07-06T11:31:40.288Z,57.79
2016-07-06T11:32:40.191Z,56.76
2016-07-06T11:33:40.286Z,56.85
2016-07-06T11:34:41.711Z,57.43
2016-07-06T11:35:40.225Z,58.49
2016-07-06T11:36:40.236Z,58.65
2016-07-06T11:37:40.314Z,57.34
2016-07-06T11:38:40.241Z,55.79
2016-07-06T11:39:41.165Z,54.18
2016-07-06T11:40:40.219Z,54.31
2016-07-06T11:41:42.695Z,54.4
2016-07-06T11:42:40.339Z,54.66
2016-07-06T11:43:40.243Z,55.92
2016-07-06T11:44:40.745Z,54.06
2016-07-06T11:56:58.792Z,47.19
2016-07-06T11:58:04.764Z,46.87
2016-07-06T11:58:58.307Z,45.83
2016-07-06T11:59:58.175Z,45.92
2016-07-06T12:00:59.246Z,45.07
2016-07-06T12:01:58.316Z,42.85
2016-07-06T12:02:58.265Z,43.64
2016-07-06T12:03:58.173Z,43.72
2016-07-06T12:04:58.436Z,43.13
2016-07-06T12:05:58.172Z,43.35
2016-07-06T12:06:58.192Z,43.37
2016-07-06T12:07:58.182Z,43.16
2016-07-06T12:08:58.195Z,44.88
2016-07-06T12:10:09.489Z,45.83
2016-07-06T12:10:58.360Z,46.09
2016-07-06T12:11:58.196Z,46
2016-07-06T12:13:00.354Z,46.41
2016-07-06T12:13:58.384Z,44.51
2016-07-06T12:14:58.201Z,44.34
2016-07-06T12:15:58.154Z,45.17
2016-07-06T12:16:58.196Z,46.41
2016-07-06T12:17:58.222Z,45.92
2016-07-06T12:18:58.244Z,44.98
2016-07-06T12:19:58.202Z,44.96
2016-07-06T12:20:58.286Z,46.99
2016-07-06T12:21:58.214Z,48.27
2016-07-06T12:23:08.610Z,48.64
2016-07-06T12:24:10.594Z,48.74
2016-07-06T12:24:58.322Z,49.29
2016-07-06T12:26:08.574Z,48.49
2016-07-06T12:26:58.175Z,49.27
2016-07-06T12:27:58.240Z,49.55
2016-07-06T12:28:58.203Z,50.13
2016-07-06T12:29:58.414Z,49.65
2016-07-06T12:30:58.463Z,50.71
2016-07-06T12:31:59.376Z,51.97
2016-07-06T12:32:58.161Z,51.07
2016-07-06T12:34:09.287Z,49.55
2016-07-06T12:34:58.287Z,50.07
2016-07-06T12:36:06.358Z,48.52
2016-07-06T12:37:04.271Z,47.89
2016-07-06T12:37:59.095Z,47.31
2016-07-06T12:50:59.076Z,42.86
2016-07-06T12:51:50.480Z,42.02
2016-07-06T12:52:20.865Z,42.03
2016-07-06T12:53:19.864Z,42.6
2016-07-06T12:54:22.252Z,43.64
2016-07-06T12:55:22.778Z,43.41
2016-07-06T12:56:20.233Z,43.23
2016-07-06T12:57:19.873Z,42.99
2016-07-06T12:58:23.585Z,42.03
2016-07-06T12:59:20.843Z,42.33
2016-07-06T13:00:20.109Z,44.44
2016-07-06T13:12:39.278Z,52.61
2016-07-06T13:13:37.915Z,53.29
2016-07-06T13:14:37.564Z,52.52
2016-07-06T13:15:37.552Z,51.58
2016-07-06T13:16:37.514Z,50.84
2016-07-06T13:17:37.528Z,48.28
2016-07-06T13:18:38.080Z,46.03
2016-07-06T13:19:37.711Z,44.16
2016-07-06T13:20:37.625Z,43.6
2016-07-06T13:21:40.011Z,42.07
2016-07-06T13:22:37.582Z,40.54
2016-07-06T13:23:37.580Z,40.34
2016-07-06T13:24:37.639Z,41.22
2016-07-06T13:25:37.773Z,41.99
2016-07-06T13:26:38.825Z,41.89
2016-07-06T13:27:37.585Z,42.29
2016-07-06T13:28:38.144Z,42.4
2016-07-06T13:29:37.582Z,41.72
2016-07-06T13:30:37.564Z,42.02
2016-07-06T13:31:37.675Z,41.89
2016-07-06T13:32:37.616Z,41.99
2016-07-06T13:33:37.532Z,41.12
2016-07-06T13:34:37.635Z,41.2
2016-07-06T13:35:37.587Z,41.68
2016-07-06T13:36:37.693Z,41.89
2016-07-06T13:37:37.563Z,41.99
2016-07-06T13:38:37.580Z,41.99
2016-07-06T13:39:38.269Z,41.82
2016-07-06T13:40:39.316Z,42.5
2016-07-06T13:41:37.623Z,42.77
2016-07-06T13:42:37.571Z,42.67
2016-07-06T13:43:37.573Z,42.3
2016-07-06T13:44:37.573Z,40.95
2016-07-06T13:45:37.573Z,41.43
2016-07-06T13:46:40.012Z,42.13
2016-07-06T13:47:37.584Z,42.02
2016-07-06T13:48:37.590Z,42.43
2016-07-06T13:49:37.578Z,43.26
2016-07-06T13:50:38.640Z,45.34
2016-07-06T13:51:38.155Z,46.58
2016-07-06T13:52:37.591Z,47.67
2016-07-06T13:53:48.473Z,49.29
2016-07-06T13:54:37.612Z,49.85
2016-07-06T13:55:37.743Z,52.04
2016-07-06T13:56:37.579Z,50.59
2016-07-06T13:57:37.624Z,50.98
2016-07-06T13:58:37.592Z,50.79
2016-07-06T13:59:37.614Z,50.04
2016-07-06T14:00:42.636Z,50.79
2016-07-06T14:01:38.728Z,50.96
2016-07-06T14:02:37.603Z,51.34
2016-07-06T14:03:37.615Z,52.21
2016-07-06T14:04:37.688Z,53.37
2016-07-06T14:05:38.309Z,53.37
2016-07-06T14:06:37.918Z,54.4
2016-07-06T14:07:38.731Z,54.31
2016-07-06T14:08:41.165Z,53.99
2016-07-06T14:09:37.806Z,55.41
2016-07-06T14:10:39.240Z,55.15
2016-07-06T14:11:37.620Z,54.64
2016-07-06T14:12:38.528Z,53.89
2016-07-06T14:13:37.637Z,53.13
2016-07-06T14:14:37.597Z,52.76
2016-07-06T14:15:37.611Z,52.59
2016-07-06T14:16:37.612Z,51.44
2016-07-06T14:17:37.588Z,51.95
2016-07-06T14:18:37.682Z,51.65
2016-07-06T14:19:41.885Z,51.07
2016-07-06T14:20:38.499Z,51.25
2016-07-06T14:21:48.136Z,51.41
2016-07-06T14:22:37.578Z,52.19
2016-07-06T14:23:37.648Z,52.95
2016-07-06T14:24:37.615Z,53.53
2016-07-06T14:25:38.672Z,54.02
2016-07-06T14:26:37.889Z,54.21
2016-07-06T14:27:38.111Z,54.66
2016-07-06T14:28:38.207Z,55.15
2016-07-06T14:29:38.651Z,54.47
2016-07-06T14:30:37.705Z,54.47